Time;durP1;ratioP1;P1;durP2;ratioP2;P2;SDS_P1;SDS_P2;PMS_P1;PMS_P2;Temp;Humidity;BMP_temperature;BMP_pressure;BME280_temperature;BME280_humidity;BME280_pressure;Samples;Min_cycle;Max_cycle;Signal;HPM_P1;HPM_P2
2023/03/09 00:00:50;;;;;;;16.00;11.43;;;1.60;99.90;;;;;;5026947;28;20557;-62
2023/03/09 00:03:16;;;;;;;16.85;11.38;;;1.60;99.90;;;;;;5025489;28;20085;-63
2023/03/09 00:05:43;;;;;;;16.13;11.07;;;1.60;99.90;;;;;;5026912;28;20057;-63
2023/03/09 00:08:10;;;;;;;15.90;11.88;;;3.10;99.90;;;;;;5025717;28;20120;-63
2023/03/09 00:10:40;;;;;;;17.23;11.57;;;1.30;99.90;;;;;;5027183;28;20094;-62
2023/03/09 00:13:06;;;;;;;19.02;12.55;;;1.50;99.90;;;;;;5026016;28;20092;-62
2023/03/09 00:15:31;;;;;;;17.58;12.13;;;1.30;99.90;;;;;;5007672;28;20080;-62
2023/03/09 00:17:57;;;;;;;15.80;12.05;;;1.40;99.90;;;;;;5026262;28;20520;-62
2023/03/09 00:20:24;;;;;;;16.08;11.85;;;1.10;99.90;;;;;;5026430;28;20544;-64
2023/03/09 00:22:51;;;;;;;18.20;11.55;;;1.10;99.90;;;;;;5025365;28;20489;-63
2023/03/09 00:25:18;;;;;;;19.05;11.73;;;1.10;99.90;;;;;;5023890;28;20049;-62
2023/03/09 00:27:51;;;;;;;18.70;12.02;;;1.10;99.90;;;;;;5025682;28;20043;-62
2023/03/09 00:30:18;;;;;;;17.80;12.30;;;1.40;99.90;;;;;;5025144;28;20535;-62
2023/03/09 00:32:44;;;;;;;16.27;11.40;;;1.00;99.90;;;;;;5025651;28;20041;-63
2023/03/09 00:35:10;;;;;;;17.80;11.02;;;1.60;99.90;;;;;;5026543;28;20141;-64
2023/03/09 00:37:39;;;;;;;16.45;11.68;;;1.10;99.90;;;;;;5026974;28;20041;-62
2023/03/09 00:40:09;;;;;;;15.93;11.45;;;1.60;99.90;;;;;;5025929;28;20554;-62
2023/03/09 00:42:41;;;;;;;18.73;12.15;;;1.20;99.90;;;;;;5009655;28;20244;-62
2023/03/09 00:45:07;;;;;;;16.63;12.10;;;1.20;99.90;;;;;;5029619;28;20436;-62
2023/03/09 00:47:33;;;;;;;19.65;12.15;;;1.30;99.90;;;;;;5035092;28;20037;-64
2023/03/09 00:49:59;;;;;;;16.13;11.38;;;1.20;99.90;;;;;;5025787;28;20205;-62
2023/03/09 00:52:24;;;;;;;16.75;12.05;;;1.00;99.90;;;;;;5026863;28;20124;-64
2023/03/09 00:54:53;;;;;;;16.73;10.95;;;1.40;99.90;;;;;;5025718;28;20045;-62
2023/03/09 00:57:20;;;;;;;16.55;11.10;;;1.00;99.90;;;;;;5026786;28;20420;-62
2023/03/09 00:59:46;;;;;;;16.38;12.27;;;1.40;99.90;;;;;;5008736;28;20052;-62
2023/03/09 01:02:12;;;;;;;18.13;11.73;;;1.30;99.90;;;;;;5026759;28;20042;-65
2023/03/09 01:04:37;;;;;;;15.35;11.15;;;1.80;99.90;;;;;;5026407;28;20065;-63
2023/03/09 01:07:03;;;;;;;16.52;12.43;;;2.90;99.90;;;;;;5026201;28;20045;-64
2023/03/09 01:09:29;;;;;;;16.17;11.98;;;1.00;99.90;;;;;;5024718;28;20045;-62
2023/03/09 01:11:55;;;;;;;15.68;11.77;;;1.10;99.90;;;;;;5024648;28;20522;-62
2023/03/09 01:14:20;;;;;;;16.30;11.70;;;1.30;99.90;;;;;;5026643;28;20140;-63
2023/03/09 01:16:46;;;;;;;17.70;12.00;;;1.30;99.90;;;;;;5026156;28;20056;-64
2023/03/09 01:19:12;;;;;;;16.67;11.48;;;1.10;99.90;;;;;;5026640;28;20071;-63
2023/03/09 01:21:37;;;;;;;17.15;12.57;;;0.80;99.90;;;;;;5026109;28;20103;-63
2023/03/09 01:24:03;;;;;;;16.60;11.77;;;0.80;99.90;;;;;;5026227;28;20039;-63
2023/03/09 01:26:29;;;;;;;17.15;12.68;;;-0.20;99.90;;;;;;5026518;28;20041;-63
2023/03/09 01:28:54;;;;;;;17.58;12.57;;;1.10;99.90;;;;;;5008314;28;20103;-63
2023/03/09 01:31:20;;;;;;;17.45;12.43;;;1.00;99.90;;;;;;5025755;28;20042;-63
2023/03/09 01:33:48;;;;;;;20.55;13.18;;;2.40;99.90;;;;;;5025976;28;20041;-63
2023/03/09 01:36:16;;;;;;;19.63;13.82;;;1.20;99.90;;;;;;5008044;28;20081;-64
2023/03/09 01:38:43;;;;;;;20.20;13.48;;;0.80;99.90;;;;;;5025798;28;20388;-63
2023/03/09 01:41:11;;;;;;;18.98;13.90;;;1.10;99.90;;;;;;5026400;28;20049;-62
2023/03/09 01:43:47;;;;;;;18.55;13.60;;;0.90;99.90;;;;;;5025923;28;20045;-62
2023/03/09 01:46:25;;;;;;;18.60;13.20;;;1.20;99.90;;;;;;5019759;28;20136;-62
2023/03/09 01:49:11;;;;;;;18.70;13.18;;;1.00;99.90;;;;;;5025658;28;20041;-62
2023/03/09 01:51:57;;;;;;;18.80;13.15;;;1.10;99.90;;;;;;5025565;28;20569;-62
2023/03/09 01:54:35;;;;;;;19.15;13.60;;;0.70;99.90;;;;;;5024464;28;20040;-64
2023/03/09 01:57:34;;;;;;;20.15;14.63;;;0.60;99.90;;;;;;5025418;28;20049;-64
2023/03/09 02:00:12;;;;;;;22.63;15.30;;;1.50;99.90;;;;;;5024990;28;20072;-62
2023/03/09 02:02:40;;;;;;;20.75;14.50;;;1.00;99.90;;;;;;5025975;28;20491;-62
2023/03/09 02:05:11;;;;;;;24.45;15.40;;;0.50;99.90;;;;;;5024826;28;20041;-61
2023/03/09 02:07:42;;;;;;;20.02;14.52;;;1.20;99.90;;;;;;5024432;28;20056;-62
2023/03/09 02:10:17;;;;;;;22.25;14.80;;;1.00;99.90;;;;;;5024883;28;20139;-63
2023/03/09 02:12:52;;;;;;;23.67;15.60;;;1.60;99.90;;;;;;5025636;28;20120;-62
2023/03/09 02:15:19;;;;;;;22.20;15.13;;;1.60;99.90;;;;;;5025053;28;20060;-62
2023/03/09 02:17:45;;;;;;;23.15;15.38;;;2.60;99.90;;;;;;5024921;28;20535;-62
2023/03/09 02:20:25;;;;;;;22.92;15.77;;;0.40;99.90;;;;;;5025009;28;20535;-62
2023/03/09 02:22:51;;;;;;;22.25;16.15;;;0.40;99.90;;;;;;5024312;28;20495;-62
2023/03/09 02:25:32;;;;;;;20.98;14.90;;;0.60;99.90;;;;;;5024568;28;20184;-64
2023/03/09 02:27:59;;;;;;;22.88;15.77;;;0.90;99.90;;;;;;5007355;28;20045;-63
2023/03/09 02:30:28;;;;;;;24.80;16.88;;;0.80;99.90;;;;;;5024002;28;20076;-62
2023/03/09 02:33:06;;;;;;;24.23;15.63;;;0.80;99.90;;;;;;5025170;28;20045;-64
2023/03/09 02:35:32;;;;;;;23.45;15.95;;;0.40;99.90;;;;;;5024684;28;20053;-63
2023/03/09 02:37:57;;;;;;;25.45;16.13;;;1.20;99.90;;;;;;5023960;28;20042;-62
2023/03/09 02:40:30;;;;;;;22.10;15.85;;;0.70;99.90;;;;;;5025062;28;20426;-61
2023/03/09 02:42:56;;;;;;;21.60;16.05;;;0.90;99.90;;;;;;5023554;28;20037;-63
2023/03/09 02:45:22;;;;;;;22.80;15.98;;;1.40;99.90;;;;;;5028742;28;20041;-62
2023/03/09 02:47:48;;;;;;;26.02;16.23;;;0.30;99.90;;;;;;5031436;28;20044;-64
2023/03/09 02:50:15;;;;;;;22.23;15.10;;;1.60;99.90;;;;;;5007131;28;20053;-63
2023/03/09 02:52:41;;;;;;;23.65;16.25;;;0.70;99.90;;;;;;5024141;28;20041;-62
2023/03/09 02:55:07;;;;;;;23.15;16.52;;;0.40;99.90;;;;;;5023163;28;20057;-62
2023/03/09 02:57:33;;;;;;;23.25;16.13;;;0.90;99.90;;;;;;5023343;28;20038;-62
2023/03/09 02:59:59;;;;;;;24.38;16.17;;;0.90;99.90;;;;;;5024658;28;20068;-64
2023/03/09 03:02:25;;;;;;;23.38;16.88;;;0.40;99.90;;;;;;5023914;28;20045;-62
2023/03/09 03:04:50;;;;;;;23.77;16.58;;;1.00;99.90;;;;;;5024820;28;20051;-62
2023/03/09 03:07:16;;;;;;;25.42;17.40;;;0.70;99.90;;;;;;5024588;28;20041;-62
2023/03/09 03:09:42;;;;;;;25.27;16.83;;;0.90;99.90;;;;;;5023609;28;20479;-64
2023/03/09 03:12:08;;;;;;;24.75;18.33;;;1.00;99.90;;;;;;5023561;28;20570;-64
2023/03/09 03:14:35;;;;;;;27.50;17.77;;;0.80;99.90;;;;;;5024696;28;20112;-63
2023/03/09 03:17:01;;;;;;;26.25;16.95;;;2.30;99.90;;;;;;5023845;28;20045;-62
2023/03/09 03:19:27;;;;;;;24.75;17.50;;;0.90;99.90;;;;;;5023682;28;20046;-61
2023/03/09 03:21:52;;;;;;;25.40;17.10;;;0.50;99.90;;;;;;5105039;22;21050;-64
2023/03/09 03:24:18;;;;;;;25.38;17.73;;;1.40;99.90;;;;;;5063322;28;20048;-63
2023/03/09 03:26:44;;;;;;;25.67;18.40;;;0.80;99.90;;;;;;5063375;28;20044;-62
2023/03/09 03:29:10;;;;;;;27.00;18.80;;;1.10;99.90;;;;;;5062595;28;20098;-62
2023/03/09 03:31:35;;;;;;;24.63;17.70;;;0.70;99.90;;;;;;5063440;28;20045;-63
2023/03/09 03:34:01;;;;;;;26.20;18.63;;;0.50;99.90;;;;;;5063256;28;20503;-64
2023/03/09 03:36:27;;;;;;;26.45;18.38;;;0.50;99.90;;;;;;5045723;28;20961;-62
2023/03/09 03:38:52;;;;;;;28.30;18.73;;;1.10;99.90;;;;;;5063084;28;20529;-62
2023/03/09 03:41:18;;;;;;;26.38;19.52;;;1.00;99.90;;;;;;5063537;28;20479;-62
2023/03/09 03:43:44;;;;;;;30.83;20.50;;;1.30;99.90;;;;;;5062919;28;20510;-63
2023/03/09 03:46:09;;;;;;;28.70;20.05;;;2.80;99.90;;;;;;5056957;28;20624;-63
2023/03/09 03:48:37;;;;;;;33.33;19.25;;;1.90;99.90;;;;;;5043357;28;20037;-62
2023/03/09 03:51:05;;;;;;;30.73;20.77;;;0.70;99.90;;;;;;5025984;28;20095;-61
2023/03/09 03:53:31;;;;;;;30.55;20.73;;;1.20;99.90;;;;;;5042185;28;20040;-62
2023/03/09 03:55:57;;;;;;;28.83;19.27;;;1.00;99.90;;;;;;5043616;28;20088;-62
2023/03/09 03:58:23;;;;;;;30.70;20.45;;;0.60;99.90;;;;;;5044040;28;20048;-63
2023/03/09 04:00:48;;;;;;;30.60;19.85;;;1.20;99.90;;;;;;5043957;28;20045;-65
2023/03/09 04:03:14;;;;;;;28.13;18.20;;;1.20;99.90;;;;;;5043575;28;20407;-63
2023/03/09 04:05:40;;;;;;;26.92;17.83;;;0.70;99.90;;;;;;5043553;28;20041;-64
2023/03/09 04:08:06;;;;;;;26.75;17.80;;;1.10;99.90;;;;;;5042607;28;20049;-63
2023/03/09 04:10:32;;;;;;;23.77;16.92;;;1.20;99.90;;;;;;5025444;28;20048;-62
2023/03/09 04:12:57;;;;;;;29.08;17.70;;;0.80;99.90;;;;;;5043794;28;20040;-62
2023/03/09 04:15:23;;;;;;;24.13;16.67;;;1.20;99.90;;;;;;5026139;28;20532;-65
2023/03/09 04:17:49;;;;;;;25.45;17.45;;;1.20;99.90;;;;;;5043638;28;20250;-62
2023/03/09 04:20:14;;;;;;;24.50;16.88;;;1.10;99.90;;;;;;5025767;28;20045;-62
2023/03/09 04:22:41;;;;;;;23.73;16.17;;;1.00;99.90;;;;;;5041520;28;20515;-62
2023/03/09 04:25:07;;;;;;;26.42;16.63;;;0.50;99.90;;;;;;5043150;28;20060;-64
2023/03/09 04:27:33;;;;;;;24.45;17.20;;;0.80;99.90;;;;;;5044111;28;20103;-62
2023/03/09 04:29:58;;;;;;;23.52;16.20;;;0.50;99.90;;;;;;5043800;28;20071;-62
2023/03/09 04:32:24;;;;;;;27.65;17.65;;;0.70;99.90;;;;;;5047000;28;20052;-63
2023/03/09 04:34:49;;;;;;;30.52;18.25;;;0.70;99.90;;;;;;5047043;28;20045;-62
2023/03/09 04:37:15;;;;;;;25.55;16.88;;;0.40;99.90;;;;;;5046924;28;20045;-63
2023/03/09 04:39:41;;;;;;;26.40;17.23;;;0.40;99.90;;;;;;5046130;28;20029;-64
2023/03/09 04:42:06;;;;;;;25.45;16.45;;;0.40;99.90;;;;;;5046508;28;20499;-64
2023/03/09 04:44:32;;;;;;;28.70;18.02;;;0.50;99.90;;;;;;5049224;28;20399;-62
2023/03/09 04:46:58;;;;;;;28.75;19.05;;;0.50;99.90;;;;;;5056094;28;20100;-64
2023/03/09 04:49:24;;;;;;;28.10;18.25;;;1.00;99.90;;;;;;5047352;28;20053;-64
2023/03/09 04:51:49;;;;;;;28.58;17.98;;;0.80;99.90;;;;;;5046659;28;20048;-62
2023/03/09 04:54:15;;;;;;;25.15;17.75;;;0.50;99.90;;;;;;5045930;28;20531;-62
2023/03/09 04:56:41;;;;;;;27.83;17.88;;;0.30;99.90;;;;;;5012270;28;20518;-62
2023/03/09 04:59:06;;;;;;;26.38;17.92;;;0.80;99.90;;;;;;5028579;28;20059;-63
2023/03/09 05:01:32;;;;;;;27.50;18.08;;;0.90;99.90;;;;;;5045087;28;20045;-63
2023/03/09 05:03:57;;;;;;;25.45;17.83;;;0.20;99.90;;;;;;5047148;28;20037;-62
2023/03/09 05:06:23;;;;;;;27.77;18.42;;;0.40;99.90;;;;;;5028971;28;20116;-62
2023/03/09 05:08:49;;;;;;;28.60;17.98;;;0.30;99.90;;;;;;5045528;28;20385;-63
2023/03/09 05:11:14;;;;;;;24.95;17.75;;;0.70;99.90;;;;;;5028579;28;20048;-62
2023/03/09 05:13:40;;;;;;;26.25;18.02;;;0.50;99.90;;;;;;5046168;28;20094;-62
2023/03/09 05:16:09;;;;;;;26.50;19.10;;;0.20;99.90;;;;;;5045750;28;20045;-63
2023/03/09 05:18:36;;;;;;;25.83;17.02;;;0.60;99.90;;;;;;5046216;28;20049;-63
2023/03/09 05:21:07;;;;;;;25.98;17.90;;;0.70;99.90;;;;;;5045701;28;20041;-62
2023/03/09 05:23:34;;;;;;;27.45;18.75;;;0.00;99.90;;;;;;5044695;28;20129;-63
2023/03/09 05:26:01;;;;;;;27.27;19.00;;;0.00;99.90;;;;;;5045986;28;20084;-64
2023/03/09 05:28:27;;;;;;;27.80;17.90;;;1.10;99.90;;;;;;5045958;28;20702;-63
2023/03/09 05:30:53;;;;;;;25.75;18.33;;;0.00;99.90;;;;;;5046354;28;20486;-62
2023/03/09 05:33:19;;;;;;;28.58;18.85;;;0.10;99.90;;;;;;5045745;28;20037;-62
2023/03/09 05:35:45;;;;;;;26.60;18.63;;;0.70;99.90;;;;;;5045815;28;20253;-64
2023/03/09 05:38:10;;;;;;;27.27;17.85;;;0.40;99.90;;;;;;5045134;28;20048;-62
2023/03/09 05:40:36;;;;;;;29.67;19.88;;;1.60;99.90;;;;;;5045778;28;20124;-62
2023/03/09 05:43:02;;;;;;;26.08;18.48;;;0.80;99.90;;;;;;5045463;28;20041;-61
2023/03/09 05:45:28;;;;;;;28.70;19.45;;;0.20;99.90;;;;;;5051597;28;20123;-62
2023/03/09 05:47:53;;;;;;;26.77;19.13;;;1.30;99.90;;;;;;5051678;28;20071;-61
2023/03/09 05:50:19;;;;;;;28.83;19.83;;;1.10;99.90;;;;;;5045370;28;20526;-60
2023/03/09 05:52:45;;;;;;;28.52;20.00;;;0.70;99.90;;;;;;5026921;28;20047;-62
2023/03/09 05:55:10;;;;;;;28.45;19.67;;;0.20;99.90;;;;;;5046001;28;20051;-61
2023/03/09 05:57:38;;;;;;;25.92;18.73;;;0.80;99.90;;;;;;5045141;28;20487;-62
2023/03/09 06:00:06;;;;;;;27.05;19.50;;;0.70;99.90;;;;;;5045887;28;20056;-61
2023/03/09 06:02:32;;;;;;;27.60;19.27;;;0.60;99.90;;;;;;5045558;28;20045;-61
2023/03/09 06:04:58;;;;;;;25.83;19.52;;;1.00;99.90;;;;;;5044943;28;20078;-64
2023/03/09 06:07:27;;;;;;;29.08;20.33;;;0.40;99.90;;;;;;5044684;28;20044;-63
2023/03/09 06:09:53;;;;;;;26.95;19.42;;;0.30;99.90;;;;;;5045572;28;20055;-61
2023/03/09 06:12:18;;;;;;;27.38;20.08;;;0.70;99.90;;;;;;5026827;28;20585;-61
2023/03/09 06:14:48;;;;;;;28.25;20.20;;;1.10;99.90;;;;;;5044682;28;20544;-62
2023/03/09 06:17:14;;;;;;;27.45;18.83;;;0.10;99.90;;;;;;5045652;28;20049;-60
2023/03/09 06:19:40;;;;;;;27.60;20.08;;;0.20;99.90;;;;;;5045217;28;20044;-61
2023/03/09 06:22:06;;;;;;;26.95;19.30;;;0.90;99.90;;;;;;5044058;28;20056;-64
2023/03/09 06:24:31;;;;;;;26.15;19.73;;;0.10;99.90;;;;;;5045106;28;20041;-61
2023/03/09 06:26:59;;;;;;;25.92;19.40;;;0.10;99.90;;;;;;5045750;28;20049;-60
2023/03/09 06:29:26;;;;;;;26.75;18.98;;;1.20;99.90;;;;;;5044286;28;20073;-61
2023/03/09 06:31:51;;;;;;;26.42;18.42;;;0.50;99.90;;;;;;5044698;28;20392;-61
2023/03/09 06:34:17;;;;;;;27.65;19.17;;;1.70;99.90;;;;;;5044669;28;20044;-62
2023/03/09 06:36:43;;;;;;;25.45;18.48;;;0.70;99.90;;;;;;5044584;28;20040;-61
2023/03/09 06:39:09;;;;;;;25.52;17.23;;;0.50;99.90;;;;;;5043999;28;20432;-61
2023/03/09 06:41:36;;;;;;;25.10;17.80;;;0.10;99.90;;;;;;5044559;28;20049;-62
2023/03/09 06:44:02;;;;;;;24.23;18.25;;;0.80;99.90;;;;;;5025707;28;20091;-63
2023/03/09 06:46:28;;;;;;;26.58;18.45;;;0.10;99.90;;;;;;5052069;28;20131;-63
2023/03/09 06:48:54;;;;;;;25.88;18.23;;;0.10;99.90;;;;;;5064489;28;20148;-62
2023/03/09 06:51:20;;;;;;;26.95;18.10;;;2.00;99.90;;;;;;5064640;28;20608;-62
2023/03/09 06:53:46;;;;;;;24.40;17.75;;;0.50;99.90;;;;;;5063894;28;20136;-62
2023/03/09 06:56:12;;;;;;;27.95;19.55;;;0.10;99.90;;;;;;5046104;28;20254;-61
2023/03/09 06:58:38;;;;;;;24.48;18.02;;;0.80;99.90;;;;;;5064280;28;20083;-61
2023/03/09 07:01:12;;;;;;;26.25;18.65;;;0.30;99.90;;;;;;5063798;28;20075;-62
2023/03/09 07:03:39;;;;;;;27.30;19.03;;;0.50;99.90;;;;;;5045979;28;20087;-61
2023/03/09 07:06:05;;;;;;;28.42;18.70;;;0.80;99.90;;;;;;5064244;28;20310;-62
2023/03/09 07:08:31;;;;;;;26.58;18.55;;;0.20;99.90;;;;;;5063928;28;20033;-63
2023/03/09 07:10:57;;;;;;;25.27;18.52;;;0.90;99.90;;;;;;5063409;28;20066;-61
2023/03/09 07:13:24;;;;;;;25.50;18.45;;;2.00;99.90;;;;;;5064119;28;20086;-62
2023/03/09 07:15:49;;;;;;;25.60;18.80;;;1.00;99.90;;;;;;5063840;28;20060;-62
2023/03/09 07:18:15;;;;;;;24.85;17.23;;;0.50;99.90;;;;;;5063812;28;20346;-62
2023/03/09 07:20:41;;;;;;;26.20;18.10;;;0.80;99.90;;;;;;5046420;28;20051;-62
2023/03/09 07:23:08;;;;;;;27.23;18.33;;;0.80;99.90;;;;;;5063259;28;20052;-61
2023/03/09 07:25:35;;;;;;;25.48;18.33;;;2.50;99.90;;;;;;5064095;28;20052;-63
2023/03/09 07:28:06;;;;;;;24.35;17.85;;;0.60;99.90;;;;;;5064234;28;20109;-62
2023/03/09 07:30:33;;;;;;;23.30;17.27;;;1.80;99.90;;;;;;5064151;28;20043;-61
2023/03/09 07:32:59;;;;;;;24.42;17.50;;;0.60;99.90;;;;;;5046279;28;20048;-63
2023/03/09 07:35:26;;;;;;;24.30;18.23;;;0.70;99.90;;;;;;5063861;28;20103;-62
2023/03/09 07:37:52;;;;;;;23.58;16.95;;;1.30;99.90;;;;;;5063136;28;20249;-62
2023/03/09 07:40:18;;;;;;;23.88;16.27;;;1.50;99.90;;;;;;5064017;28;20051;-62
2023/03/09 07:42:49;;;;;;;23.55;17.02;;;1.00;99.90;;;;;;5062867;28;20044;-63
2023/03/09 07:45:15;;;;;;;22.00;15.75;;;1.40;99.90;;;;;;5056698;28;20048;-61
2023/03/09 07:47:42;;;;;;;23.00;16.85;;;1.60;99.90;;;;;;5050329;28;20045;-62
2023/03/09 07:50:08;;;;;;;22.75;16.38;;;2.00;99.90;;;;;;5043336;28;20120;-62
2023/03/09 07:52:34;;;;;;;23.48;16.70;;;1.70;99.90;;;;;;5043655;28;20068;-61
2023/03/09 07:55:01;;;;;;;22.48;16.52;;;1.40;99.90;;;;;;5026128;28;20111;-62
2023/03/09 07:57:31;;;;;;;21.25;16.08;;;1.10;99.90;;;;;;5044150;28;20384;-63
2023/03/09 07:59:57;;;;;;;23.35;16.35;;;1.60;99.90;;;;;;5044000;28;20142;-61
2023/03/09 08:02:23;;;;;;;22.20;16.33;;;1.10;99.90;;;;;;5043003;28;20495;-63
2023/03/09 08:04:49;;;;;;;24.10;16.17;;;1.10;99.90;;;;;;5042947;28;20055;-63
2023/03/09 08:07:15;;;;;;;29.27;17.83;;;1.40;99.90;;;;;;5045347;28;20049;-63
2023/03/09 08:09:41;;;;;;;23.15;16.48;;;1.80;99.90;;;;;;5047099;28;20044;-61
2023/03/09 08:12:08;;;;;;;23.17;16.52;;;1.90;99.90;;;;;;5047343;28;20037;-62
2023/03/09 08:14:33;;;;;;;21.00;15.77;;;1.80;99.90;;;;;;5046581;28;20044;-63
2023/03/09 08:17:01;;;;;;;21.33;15.38;;;1.70;99.90;;;;;;5047095;28;20134;-63
2023/03/09 08:19:27;;;;;;;19.90;14.50;;;2.10;99.90;;;;;;5047578;28;20052;-63
2023/03/09 08:21:52;;;;;;;19.83;14.98;;;2.20;99.90;;;;;;5046656;28;20045;-66
2023/03/09 08:24:18;;;;;;;20.13;15.23;;;2.20;99.90;;;;;;5047370;28;20594;-66
2023/03/09 08:26:44;;;;;;;19.92;14.88;;;2.80;99.90;;;;;;5047341;28;20076;-65
2023/03/09 08:29:10;;;;;;;18.92;14.55;;;1.90;99.90;;;;;;5047216;28;20072;-66
2023/03/09 08:31:36;;;;;;;19.33;14.60;;;2.10;99.90;;;;;;5046669;28;20041;-62
2023/03/09 08:34:03;;;;;;;19.30;14.10;;;2.30;99.90;;;;;;5047522;28;20041;-67
2023/03/09 08:36:29;;;;;;;20.88;14.23;;;1.90;99.90;;;;;;5046912;28;20039;-65
2023/03/09 08:38:55;;;;;;;20.15;14.13;;;3.20;99.90;;;;;;5028261;28;20057;-67
2023/03/09 08:41:21;;;;;;;19.25;14.30;;;2.40;99.90;;;;;;5047079;28;20048;-63
2023/03/09 08:43:47;;;;;;;19.88;13.43;;;2.50;99.90;;;;;;5047421;28;20041;-64
2023/03/09 08:46:13;;;;;;;20.48;14.45;;;2.20;99.90;;;;;;5058669;28;20431;-64
2023/03/09 08:48:39;;;;;;;19.50;14.32;;;2.70;99.90;;;;;;5046306;28;20068;-66
2023/03/09 08:51:07;;;;;;;18.42;13.88;;;2.60;99.90;;;;;;5047519;28;20049;-66
2023/03/09 08:53:34;;;;;;;18.17;14.57;;;3.20;99.90;;;;;;5046564;28;20544;-66
2023/03/09 08:56:05;;;;;;;18.20;13.88;;;2.20;99.90;;;;;;5045424;28;20135;-62
2023/03/09 08:58:31;;;;;;;16.83;12.90;;;2.60;99.90;;;;;;5047136;28;20108;-66
2023/03/09 09:00:57;;;;;;;17.27;12.73;;;2.60;99.90;;;;;;5047168;28;20136;-65
2023/03/09 09:03:22;;;;;;;16.65;13.13;;;2.40;99.90;;;;;;5046821;28;20083;-66
2023/03/09 09:05:48;;;;;;;15.77;12.30;;;2.60;99.90;;;;;;5046524;28;20045;-66
2023/03/09 09:08:14;;;;;;;17.05;13.52;;;2.70;99.90;;;;;;5046174;28;20072;-62
2023/03/09 09:10:42;;;;;;;16.70;12.38;;;2.20;99.90;;;;;;5046661;28;20483;-63
2023/03/09 09:13:09;;;;;;;16.27;12.18;;;2.80;99.90;;;;;;5046496;28;20068;-67
2023/03/09 09:15:37;;;;;;;18.40;13.00;;;2.60;99.90;;;;;;5046965;28;20099;-63
2023/03/09 09:18:03;;;;;;;15.88;12.32;;;3.40;99.90;;;;;;5046583;28;20103;-65
2023/03/09 09:20:29;;;;;;;15.93;11.82;;;2.50;99.90;;;;;;5045798;28;20045;-64
2023/03/09 09:22:55;;;;;;;17.13;13.48;;;2.80;99.90;;;;;;5044817;28;20483;-66
2023/03/09 09:25:20;;;;;;;15.55;11.77;;;3.00;99.90;;;;;;5045791;28;20075;-65
2023/03/09 09:27:50;;;;;;;15.13;11.10;;;2.60;99.90;;;;;;5046054;28;20070;-61
2023/03/09 09:30:17;;;;;;;14.25;11.50;;;3.00;99.90;;;;;;5050089;28;20037;-66
2023/03/09 09:32:44;;;;;;;14.23;11.68;;;2.80;99.90;;;;;;5048499;28;20063;-66
2023/03/09 09:35:11;;;;;;;15.52;11.70;;;2.70;99.90;;;;;;5066102;28;20048;-66
2023/03/09 09:37:38;;;;;;;14.57;11.23;;;2.90;99.90;;;;;;5065333;28;20399;-63
2023/03/09 09:40:04;;;;;;;15.43;10.82;;;2.60;99.90;;;;;;5048221;28;20060;-66
2023/03/09 09:42:37;;;;;;;13.15;10.68;;;2.90;99.90;;;;;;5048293;28;20047;-66
2023/03/09 09:45:10;;;;;;;14.35;10.95;;;2.80;99.90;;;;;;5059595;28;20041;-65
2023/03/09 09:47:36;;;;;;;12.23;9.88;;;3.20;99.90;;;;;;5057827;28;20056;-64
2023/03/09 09:50:02;;;;;;;12.23;9.52;;;3.60;99.90;;;;;;5048098;28;20217;-66
2023/03/09 09:52:44;;;;;;;13.52;10.65;;;3.20;99.90;;;;;;5064748;28;20086;-67
2023/03/09 09:55:21;;;;;;;13.15;10.13;;;3.20;99.90;;;;;;5066223;28;20032;-66
2023/03/09 09:57:51;;;;;;;12.93;10.68;;;2.90;99.90;;;;;;5065078;28;20040;-65
2023/03/09 10:00:24;;;;;;;13.73;10.40;;;3.30;99.90;;;;;;5065800;28;20040;-66
2023/03/09 10:03:14;;;;;;;14.20;11.25;;;2.80;99.90;;;;;;5065602;28;20155;-66
2023/03/09 10:05:55;;;;;;;13.25;10.23;;;3.10;99.90;;;;;;5066026;28;20139;-64
2023/03/09 10:08:40;;;;;;;13.48;10.25;;;3.10;99.90;;;;;;5064438;28;20047;-61
2023/03/09 10:11:21;;;;;;;13.15;10.20;;;3.20;99.90;;;;;;5065384;28;20052;-62
2023/03/09 10:13:51;;;;;;;12.43;10.27;;;3.30;99.90;;;;;;5065543;28;20380;-65
2023/03/09 10:16:28;;;;;;;12.52;10.27;;;3.50;99.90;;;;;;5065447;28;20094;-65
2023/03/09 10:19:01;;;;;;;12.23;9.95;;;3.20;99.90;;;;;;5064944;28;20052;-62
2023/03/09 10:21:35;;;;;;;14.30;11.07;;;3.00;99.90;;;;;;5046469;28;20128;-66
2023/03/09 10:24:21;;;;;;;14.57;10.85;;;3.00;99.90;;;;;;5065098;28;20102;-62
2023/03/09 10:27:00;;;;;;;12.30;10.25;;;3.30;99.90;;;;;;5046911;28;20142;-64
2023/03/09 10:30:10;;;;;;;14.02;10.68;;;3.20;99.90;;;;;;5064351;28;20040;-62
2023/03/09 10:32:54;;;;;;;13.48;10.55;;;3.20;99.90;;;;;;5015901;28;20056;-63
2023/03/09 10:35:43;;;;;;;13.00;10.40;;;3.60;99.90;;;;;;5065438;28;20085;-63
2023/03/09 10:38:13;;;;;;;13.25;10.48;;;3.60;99.90;;;;;;5036380;28;20370;-62
2023/03/09 10:40:48;;;;;;;12.32;10.23;;;3.80;99.90;;;;;;5047477;28;20062;-62
2023/03/09 10:43:22;;;;;;;;;;;3.90;99.90;;;;;;5065632;28;20078;-57
2023/03/09 10:45:48;;;;;;;13.25;11.13;;;3.40;99.90;;;;;;5058494;28;19948;-59
2023/03/09 10:48:25;;;;;;;13.98;10.73;;;3.40;99.90;;;;;;5048270;28;20444;-64
2023/03/09 10:51:00;;;;;;;12.77;11.02;;;4.00;99.90;;;;;;5044723;28;20049;-66
2023/03/09 10:53:43;;;;;;;13.48;11.55;;;3.30;99.90;;;;;;5044204;28;20049;-64
2023/03/09 10:56:28;;;;;;;12.40;10.68;;;3.40;99.90;;;;;;5044749;28;20452;-65
2023/03/09 10:59:06;;;;;;;12.60;10.60;;;3.50;99.90;;;;;;5044748;28;20045;-62
2023/03/09 11:01:35;;;;;;;12.80;10.57;;;3.50;99.90;;;;;;5043138;28;20056;-64
2023/03/09 11:04:01;;;;;;;13.63;11.27;;;3.50;99.90;;;;;;5045016;28;20033;-64
2023/03/09 11:06:37;;;;;;;13.02;10.75;;;3.30;99.90;;;;;;5043963;28;20045;-64
2023/03/09 11:09:13;;;;;;;13.55;11.32;;;3.20;99.90;;;;;;5044734;28;20052;-60
2023/03/09 11:11:41;;;;;;;13.68;11.05;;;3.60;99.90;;;;;;5043633;28;20052;-62
2023/03/09 11:14:23;;;;;;;13.02;11.00;;;3.40;99.90;;;;;;5044329;28;20055;-65
2023/03/09 11:16:51;;;;;;;13.38;11.02;;;3.60;99.90;;;;;;5044831;28;20045;-64
2023/03/09 11:19:19;;;;;;;13.50;11.23;;;3.60;99.90;;;;;;5044773;28;20064;-60
2023/03/09 11:21:57;;;;;;;12.77;11.02;;;3.50;99.90;;;;;;5044003;28;20052;-65
2023/03/09 11:24:49;;;;;;;13.98;10.80;;;3.30;99.90;;;;;;5044726;28;20102;-65
2023/03/09 11:27:32;;;;;;;13.20;11.02;;;3.50;99.90;;;;;;5041109;28;20109;-64
2023/03/09 11:30:11;;;;;;;13.57;10.93;;;3.40;99.90;;;;;;5043529;28;20120;-60
2023/03/09 11:32:36;;;;;;;13.20;11.13;;;3.50;99.90;;;;;;5043420;28;20702;-63
2023/03/09 11:35:03;;;;;;;14.27;12.27;;;3.30;99.90;;;;;;5044543;28;20037;-59
2023/03/09 11:37:36;;;;;;;13.95;11.20;;;3.20;99.90;;;;;;5042858;28;20094;-65
2023/03/09 11:40:24;;;;;;;15.00;11.65;;;3.20;99.90;;;;;;5044424;28;20045;-64
2023/03/09 11:42:58;;;;;;;16.05;12.57;;;3.50;99.90;;;;;;5047597;28;20784;-65
2023/03/09 11:45:30;;;;;;;14.73;12.15;;;3.90;99.90;;;;;;5052684;28;20049;-65
2023/03/09 11:48:01;;;;;;;15.15;12.55;;;3.50;99.90;;;;;;5035058;28;20048;-64
2023/03/09 11:50:46;;;;;;;15.80;12.30;;;3.30;99.90;;;;;;5048084;28;20049;-59
2023/03/09 11:53:33;;;;;;;15.48;12.38;;;3.40;99.90;;;;;;5047151;28;20079;-64
2023/03/09 11:56:28;;;;;;;15.38;12.82;;;3.30;99.90;;;;;;5048184;28;20051;-64
2023/03/09 11:59:00;;;;;;;16.30;13.77;;;3.50;99.90;;;;;;5047310;28;20044;-66
2023/03/09 12:02:11;;;;;;;14.80;12.43;;;3.60;99.90;;;;;;5047828;28;20044;-62
2023/03/09 12:04:36;;;;;;;15.73;12.82;;;3.60;99.90;;;;;;5016996;28;20128;-61
2023/03/09 12:07:05;;;;;;;16.15;12.65;;;3.90;99.90;;;;;;5047519;28;20647;-65
2023/03/09 12:10:01;;;;;;;14.90;12.68;;;4.00;99.90;;;;;;5047608;28;20473;-62
2023/03/09 12:12:36;;;;;;;15.18;13.07;;;3.50;99.90;;;;;;5047752;28;20053;-65
2023/03/09 12:15:23;;;;;;;;;;;3.60;99.90;;;;;;5048319;28;20045;-66
2023/03/09 12:17:53;;;;;;;15.30;12.48;;;3.50;99.90;;;;;;5047589;28;19960;-65
2023/03/09 12:20:23;;;;;;;14.80;12.85;;;3.70;99.90;;;;;;5048329;28;20132;-65
2023/03/09 12:22:48;;;;;;;16.50;12.95;;;3.70;99.90;;;;;;5047049;28;20091;-63
2023/03/09 12:25:20;;;;;;;15.52;13.45;;;3.70;99.90;;;;;;5047179;28;20583;-65
2023/03/09 12:27:54;;;;;;;15.80;13.15;;;3.70;99.90;;;;;;5048236;28;20055;-63
2023/03/09 12:30:30;;;;;;;17.67;13.20;;;3.80;99.90;;;;;;5048079;28;20033;-62
2023/03/09 12:32:59;;;;;;;15.65;13.20;;;3.60;99.90;;;;;;5047308;28;20115;-65
2023/03/09 12:35:40;;;;;;;14.95;12.77;;;4.10;99.90;;;;;;5047699;28;20120;-64
2023/03/09 12:38:20;;;;;;;19.75;14.20;;;3.50;99.90;;;;;;5046267;28;20037;-59
2023/03/09 12:40:48;;;;;;;15.32;13.50;;;4.10;99.90;;;;;;5047444;28;20049;-64
2023/03/09 12:43:13;;;;;;;16.90;13.68;;;3.40;99.90;;;;;;5047649;28;20037;-64
2023/03/09 12:45:41;;;;;;;17.90;14.63;;;3.70;99.90;;;;;;5053219;28;20565;-62
2023/03/09 12:48:06;;;;;;;18.65;15.55;;;4.00;99.90;;;;;;5050989;28;20056;-65